sensor_id;sensor_type;location;lat;lon;timestamp;pressure;altitude;pressure_sealevel;temperature
58307;BMP280;44116;50.884;4.768;2024-01-07T00:00:52;100650.0;;;2.3
58307;BMP280;44116;50.884;4.768;2024-01-07T00:02:52;100600.0;;;2.1
58307;BMP280;44116;50.884;4.768;2024-01-07T00:04:52;100650.0;;;2.2
58307;BMP280;44116;50.884;4.768;2024-01-07T00:06:51;100670.0;;;2.2
58307;BMP280;44116;50.884;4.768;2024-01-07T00:08:51;100660.0;;;2.1
58307;BMP280;44116;50.884;4.768;2024-01-07T00:12:51;100720.0;;;2.0
58307;BMP280;44116;50.884;4.768;2024-01-07T00:14:49;100770.0;;;2.0
58307;BMP280;44116;50.884;4.768;2024-01-07T00:16:49;100850.0;;;2.2
58307;BMP280;44116;50.884;4.768;2024-01-07T00:18:49;100900.0;;;2.4
58307;BMP280;44116;50.884;4.768;2024-01-07T00:20:48;100900.0;;;2.4
58307;BMP280;44116;50.884;4.768;2024-01-07T00:22:48;100850.0;;;2.2
58307;BMP280;44116;50.884;4.768;2024-01-07T00:24:47;100880.0;;;2.2
58307;BMP280;44116;50.884;4.768;2024-01-07T00:26:47;100820.0;;;2.0
58307;BMP280;44116;50.884;4.768;2024-01-07T00:28:46;100800.0;;;2.0
58307;BMP280;44116;50.884;4.768;2024-01-07T00:30:46;100740.0;;;1.9
58307;BMP280;44116;50.884;4.768;2024-01-07T00:32:45;100740.0;;;1.9
58307;BMP280;44116;50.884;4.768;2024-01-07T00:34:45;100700.0;;;1.9
58307;BMP280;44116;50.884;4.768;2024-01-07T00:36:45;100700.0;;;1.8
58307;BMP280;44116;50.884;4.768;2024-01-07T00:38:44;100690.0;;;1.9
58307;BMP280;44116;50.884;4.768;2024-01-07T00:40:44;100650.0;;;1.8
58307;BMP280;44116;50.884;4.768;2024-01-07T00:42:43;100660.0;;;1.8
58307;BMP280;44116;50.884;4.768;2024-01-07T00:44:43;100680.0;;;1.8
58307;BMP280;44116;50.884;4.768;2024-01-07T00:46:42;100650.0;;;1.9
58307;BMP280;44116;50.884;4.768;2024-01-07T00:48:42;100660.0;;;1.8
58307;BMP280;44116;50.884;4.768;2024-01-07T00:50:41;100690.0;;;1.7
58307;BMP280;44116;50.884;4.768;2024-01-07T00:52:41;100720.0;;;1.9
58307;BMP280;44116;50.884;4.768;2024-01-07T00:54:41;100660.0;;;1.6
58307;BMP280;44116;50.884;4.768;2024-01-07T00:56:40;100700.0;;;1.8
58307;BMP280;44116;50.884;4.768;2024-01-07T00:58:40;100640.0;;;1.5
58307;BMP280;44116;50.884;4.768;2024-01-07T01:00:39;100720.0;;;1.8
58307;BMP280;44116;50.884;4.768;2024-01-07T01:02:39;100700.0;;;1.9
58307;BMP280;44116;50.884;4.768;2024-01-07T01:04:38;100670.0;;;1.8
58307;BMP280;44116;50.884;4.768;2024-01-07T01:08:37;100650.0;;;1.6
58307;BMP280;44116;50.884;4.768;2024-01-07T01:10:37;100640.0;;;1.4
58307;BMP280;44116;50.884;4.768;2024-01-07T01:12:36;100670.0;;;1.4
58307;BMP280;44116;50.884;4.768;2024-01-07T01:14:36;100660.0;;;1.5
58307;BMP280;44116;50.884;4.768;2024-01-07T01:16:36;100700.0;;;1.7
58307;BMP280;44116;50.884;4.768;2024-01-07T01:20:35;100640.0;;;1.5
58307;BMP280;44116;50.884;4.768;2024-01-07T01:24:34;100660.0;;;1.4
58307;BMP280;44116;50.884;4.768;2024-01-07T01:26:33;100710.0;;;1.6
58307;BMP280;44116;50.884;4.768;2024-01-07T01:28:33;100650.0;;;1.4
58307;BMP280;44116;50.884;4.768;2024-01-07T01:30:32;100720.0;;;1.6
58307;BMP280;44116;50.884;4.768;2024-01-07T01:32:32;100710.0;;;1.7
58307;BMP280;44116;50.884;4.768;2024-01-07T01:34:31;100660.0;;;1.5
58307;BMP280;44116;50.884;4.768;2024-01-07T01:36:31;100700.0;;;1.5
58307;BMP280;44116;50.884;4.768;2024-01-07T01:38:30;100740.0;;;1.7
58307;BMP280;44116;50.884;4.768;2024-01-07T01:40:30;100690.0;;;1.5
58307;BMP280;44116;50.884;4.768;2024-01-07T01:44:29;100730.0;;;1.6
58307;BMP280;44116;50.884;4.768;2024-01-07T01:46:29;100730.0;;;1.5
58307;BMP280;44116;50.884;4.768;2024-01-07T01:48:28;100720.0;;;1.4
58307;BMP280;44116;50.884;4.768;2024-01-07T01:50:28;100780.0;;;1.5
58307;BMP280;44116;50.884;4.768;2024-01-07T01:52:27;100860.0;;;1.8
58307;BMP280;44116;50.884;4.768;2024-01-07T01:54:27;100800.0;;;1.5
58307;BMP280;44116;50.884;4.768;2024-01-07T01:56:26;100810.0;;;1.5
58307;BMP280;44116;50.884;4.768;2024-01-07T01:58:26;100780.0;;;1.2
58307;BMP280;44116;50.884;4.768;2024-01-07T02:00:25;100870.0;;;1.3
58307;BMP280;44116;50.884;4.768;2024-01-07T02:02:25;100880.0;;;1.3
58307;BMP280;44116;50.884;4.768;2024-01-07T02:04:24;100950.0;;;1.5
58307;BMP280;44116;50.884;4.768;2024-01-07T02:06:24;100980.0;;;1.6
58307;BMP280;44116;50.884;4.768;2024-01-07T02:08:23;100940.0;;;1.4
58307;BMP280;44116;50.884;4.768;2024-01-07T02:10:23;100940.0;;;1.3
58307;BMP280;44116;50.884;4.768;2024-01-07T02:12:23;100990.0;;;1.4
58307;BMP280;44116;50.884;4.768;2024-01-07T02:14:22;101040.0;;;1.6
58307;BMP280;44116;50.884;4.768;2024-01-07T02:16:22;100990.0;;;1.4
58307;BMP280;44116;50.884;4.768;2024-01-07T02:18:21;101060.0;;;1.6
58307;BMP280;44116;50.884;4.768;2024-01-07T02:20:23;101070.0;;;1.7
58307;BMP280;44116;50.884;4.768;2024-01-07T02:22:20;101030.0;;;1.4
58307;BMP280;44116;50.884;4.768;2024-01-07T02:24:20;101020.0;;;1.3
58307;BMP280;44116;50.884;4.768;2024-01-07T02:26:19;101040.0;;;1.3
58307;BMP280;44116;50.884;4.768;2024-01-07T02:28:19;101070.0;;;1.3
58307;BMP280;44116;50.884;4.768;2024-01-07T02:30:19;101110.0;;;1.4
58307;BMP280;44116;50.884;4.768;2024-01-07T02:32:18;101120.0;;;1.4
58307;BMP280;44116;50.884;4.768;2024-01-07T02:34:18;101130.0;;;1.4
58307;BMP280;44116;50.884;4.768;2024-01-07T02:36:17;101140.0;;;1.4
58307;BMP280;44116;50.884;4.768;2024-01-07T02:38:17;101140.0;;;1.4
58307;BMP280;44116;50.884;4.768;2024-01-07T02:40:16;101160.0;;;1.5
58307;BMP280;44116;50.884;4.768;2024-01-07T02:42:16;101160.0;;;1.3
58307;BMP280;44116;50.884;4.768;2024-01-07T02:44:15;101180.0;;;1.3
58307;BMP280;44116;50.884;4.768;2024-01-07T02:46:15;101180.0;;;1.3
58307;BMP280;44116;50.884;4.768;2024-01-07T02:48:14;101200.0;;;1.2
58307;BMP280;44116;50.884;4.768;2024-01-07T02:50:14;101170.0;;;0.9
58307;BMP280;44116;50.884;4.768;2024-01-07T02:52:14;101220.0;;;1.1
58307;BMP280;44116;50.884;4.768;2024-01-07T02:56:13;101220.0;;;1.2
58307;BMP280;44116;50.884;4.768;2024-01-07T02:58:12;101220.0;;;1.2
58307;BMP280;44116;50.884;4.768;2024-01-07T03:02:12;101240.0;;;1.2
58307;BMP280;44116;50.884;4.768;2024-01-07T03:04:12;101250.0;;;1.4
58307;BMP280;44116;50.884;4.768;2024-01-07T03:06:10;101250.0;;;1.3
58307;BMP280;44116;50.884;4.768;2024-01-07T03:08:10;101270.0;;;1.4
58307;BMP280;44116;50.884;4.768;2024-01-07T03:10:09;101250.0;;;1.3
58307;BMP280;44116;50.884;4.768;2024-01-07T03:12:09;101270.0;;;1.3
58307;BMP280;44116;50.884;4.768;2024-01-07T03:14:09;101260.0;;;1.2
58307;BMP280;44116;50.884;4.768;2024-01-07T03:16:08;101250.0;;;1.2
58307;BMP280;44116;50.884;4.768;2024-01-07T03:18:07;101280.0;;;1.2
58307;BMP280;44116;50.884;4.768;2024-01-07T03:20:07;101280.0;;;1.1
58307;BMP280;44116;50.884;4.768;2024-01-07T03:22:12;101300.0;;;1.3
58307;BMP280;44116;50.884;4.768;2024-01-07T03:24:06;101270.0;;;1.0
58307;BMP280;44116;50.884;4.768;2024-01-07T03:26:06;101300.0;;;1.0
58307;BMP280;44116;50.884;4.768;2024-01-07T03:28:05;101290.0;;;1.1
58307;BMP280;44116;50.884;4.768;2024-01-07T03:30:05;101310.0;;;1.1
58307;BMP280;44116;50.884;4.768;2024-01-07T03:32:05;101310.0;;;1.2
58307;BMP280;44116;50.884;4.768;2024-01-07T03:34:04;101290.0;;;0.9
58307;BMP280;44116;50.884;4.768;2024-01-07T03:36:06;101320.0;;;1.1
58307;BMP280;44116;50.884;4.768;2024-01-07T03:38:03;101330.0;;;1.4
58307;BMP280;44116;50.884;4.768;2024-01-07T03:40:03;101330.0;;;1.5
58307;BMP280;44116;50.884;4.768;2024-01-07T03:42:02;101300.0;;;1.1
58307;BMP280;44116;50.884;4.768;2024-01-07T03:44:01;101310.0;;;1.1
58307;BMP280;44116;50.884;4.768;2024-01-07T03:46:01;101310.0;;;1.2
58307;BMP280;44116;50.884;4.768;2024-01-07T03:48:00;101320.0;;;1.2
58307;BMP280;44116;50.884;4.768;2024-01-07T03:50:00;101330.0;;;1.3
58307;BMP280;44116;50.884;4.768;2024-01-07T03:51:59;101300.0;;;1.0
58307;BMP280;44116;50.884;4.768;2024-01-07T03:53:59;101330.0;;;1.1
58307;BMP280;44116;50.884;4.768;2024-01-07T03:55:58;101330.0;;;1.1
58307;BMP280;44116;50.884;4.768;2024-01-07T03:57:58;101320.0;;;1.1
58307;BMP280;44116;50.884;4.768;2024-01-07T03:59:58;101340.0;;;1.1
58307;BMP280;44116;50.884;4.768;2024-01-07T04:01:57;101360.0;;;1.1
58307;BMP280;44116;50.884;4.768;2024-01-07T04:03:57;101350.0;;;1.0
58307;BMP280;44116;50.884;4.768;2024-01-07T04:05:56;101360.0;;;0.9
58307;BMP280;44116;50.884;4.768;2024-01-07T04:07:56;101360.0;;;0.9
58307;BMP280;44116;50.884;4.768;2024-01-07T04:09:55;101370.0;;;1.0
58307;BMP280;44116;50.884;4.768;2024-01-07T04:11:55;101360.0;;;0.9
58307;BMP280;44116;50.884;4.768;2024-01-07T04:13:54;101370.0;;;1.0
58307;BMP280;44116;50.884;4.768;2024-01-07T04:15:54;101370.0;;;0.9
58307;BMP280;44116;50.884;4.768;2024-01-07T04:17:53;101370.0;;;1.0
58307;BMP280;44116;50.884;4.768;2024-01-07T04:19:53;101380.0;;;1.1
58307;BMP280;44116;50.884;4.768;2024-01-07T04:21:52;101360.0;;;1.0
58307;BMP280;44116;50.884;4.768;2024-01-07T04:23:52;101370.0;;;1.1
58307;BMP280;44116;50.884;4.768;2024-01-07T04:25:51;101370.0;;;1.1
58307;BMP280;44116;50.884;4.768;2024-01-07T04:27:51;101390.0;;;1.4
58307;BMP280;44116;50.884;4.768;2024-01-07T04:29:50;101340.0;;;1.0
58307;BMP280;44116;50.884;4.768;2024-01-07T04:31:50;101340.0;;;1.0
58307;BMP280;44116;50.884;4.768;2024-01-07T04:33:50;101380.0;;;1.2
58307;BMP280;44116;50.884;4.768;2024-01-07T04:35:49;101370.0;;;1.1
58307;BMP280;44116;50.884;4.768;2024-01-07T04:37:48;101370.0;;;1.1
58307;BMP280;44116;50.884;4.768;2024-01-07T04:39:48;101380.0;;;1.1
58307;BMP280;44116;50.884;4.768;2024-01-07T04:41:47;101380.0;;;1.1
58307;BMP280;44116;50.884;4.768;2024-01-07T04:43:47;101390.0;;;1.2
58307;BMP280;44116;50.884;4.768;2024-01-07T04:45:47;101390.0;;;1.3
58307;BMP280;44116;50.884;4.768;2024-01-07T04:47:46;101370.0;;;1.0
58307;BMP280;44116;50.884;4.768;2024-01-07T04:49:46;101390.0;;;1.3
58307;BMP280;44116;50.884;4.768;2024-01-07T04:51:45;101380.0;;;1.2
58307;BMP280;44116;50.884;4.768;2024-01-07T04:53:45;101360.0;;;1.1
58307;BMP280;44116;50.884;4.768;2024-01-07T04:55:44;101380.0;;;1.1
58307;BMP280;44116;50.884;4.768;2024-01-07T04:57:44;101350.0;;;1.0
58307;BMP280;44116;50.884;4.768;2024-01-07T04:59:43;101390.0;;;1.1
58307;BMP280;44116;50.884;4.768;2024-01-07T05:01:43;101390.0;;;1.2
58307;BMP280;44116;50.884;4.768;2024-01-07T05:03:42;101370.0;;;1.1
58307;BMP280;44116;50.884;4.768;2024-01-07T05:05:42;101370.0;;;1.0
58307;BMP280;44116;50.884;4.768;2024-01-07T05:07:42;101380.0;;;1.2
58307;BMP280;44116;50.884;4.768;2024-01-07T05:09:41;101370.0;;;1.1
58307;BMP280;44116;50.884;4.768;2024-01-07T05:11:40;101380.0;;;1.2
58307;BMP280;44116;50.884;4.768;2024-01-07T05:13:40;101390.0;;;1.4
58307;BMP280;44116;50.884;4.768;2024-01-07T05:15:39;101380.0;;;1.2
58307;BMP280;44116;50.884;4.768;2024-01-07T05:17:39;101390.0;;;1.3
58307;BMP280;44116;50.884;4.768;2024-01-07T05:19:39;101420.0;;;1.3
58307;BMP280;44116;50.884;4.768;2024-01-07T05:21:38;101370.0;;;1.1
58307;BMP280;44116;50.884;4.768;2024-01-07T05:23:39;101410.0;;;1.2
58307;BMP280;44116;50.884;4.768;2024-01-07T05:25:37;101390.0;;;1.1
58307;BMP280;44116;50.884;4.768;2024-01-07T05:27:37;101420.0;;;1.2
58307;BMP280;44116;50.884;4.768;2024-01-07T05:29:36;101440.0;;;1.3
58307;BMP280;44116;50.884;4.768;2024-01-07T05:31:36;101440.0;;;1.2
58307;BMP280;44116;50.884;4.768;2024-01-07T05:33:35;101430.0;;;1.0
58307;BMP280;44116;50.884;4.768;2024-01-07T05:35:36;101470.0;;;1.2
58307;BMP280;44116;50.884;4.768;2024-01-07T05:37:34;101470.0;;;1.2
58307;BMP280;44116;50.884;4.768;2024-01-07T05:39:34;101470.0;;;1.1
58307;BMP280;44116;50.884;4.768;2024-01-07T05:41:36;101480.0;;;1.2
58307;BMP280;44116;50.884;4.768;2024-01-07T05:43:35;101490.0;;;1.1
58307;BMP280;44116;50.884;4.768;2024-01-07T05:47:32;101500.0;;;1.2
58307;BMP280;44116;50.884;4.768;2024-01-07T05:49:31;101490.0;;;1.0
58307;BMP280;44116;50.884;4.768;2024-01-07T05:51:31;101510.0;;;1.0
58307;BMP280;44116;50.884;4.768;2024-01-07T05:53:31;101500.0;;;0.9
58307;BMP280;44116;50.884;4.768;2024-01-07T05:55:30;101510.0;;;0.9
58307;BMP280;44116;50.884;4.768;2024-01-07T05:57:30;101510.0;;;1.0
58307;BMP280;44116;50.884;4.768;2024-01-07T05:59:29;101510.0;;;1.0
58307;BMP280;44116;50.884;4.768;2024-01-07T06:01:29;101500.0;;;1.0
58307;BMP280;44116;50.884;4.768;2024-01-07T06:03:28;101510.0;;;1.1
58307;BMP280;44116;50.884;4.768;2024-01-07T06:05:28;101500.0;;;1.0
58307;BMP280;44116;50.884;4.768;2024-01-07T06:07:27;101500.0;;;1.1
58307;BMP280;44116;50.884;4.768;2024-01-07T06:09:27;101500.0;;;1.2
58307;BMP280;44116;50.884;4.768;2024-01-07T06:11:27;101500.0;;;1.2
58307;BMP280;44116;50.884;4.768;2024-01-07T06:13:26;101510.0;;;1.3
58307;BMP280;44116;50.884;4.768;2024-01-07T06:15:25;101500.0;;;1.2
58307;BMP280;44116;50.884;4.768;2024-01-07T06:17:25;101520.0;;;1.3
58307;BMP280;44116;50.884;4.768;2024-01-07T06:19:25;101500.0;;;1.0
58307;BMP280;44116;50.884;4.768;2024-01-07T06:21:24;101520.0;;;1.0
58307;BMP280;44116;50.884;4.768;2024-01-07T06:23:24;101510.0;;;0.8
58307;BMP280;44116;50.884;4.768;2024-01-07T06:25:23;101510.0;;;0.9
58307;BMP280;44116;50.884;4.768;2024-01-07T06:27:23;101500.0;;;0.7
58307;BMP280;44116;50.884;4.768;2024-01-07T06:29:22;101510.0;;;0.9
58307;BMP280;44116;50.884;4.768;2024-01-07T06:31:22;101510.0;;;0.7
58307;BMP280;44116;50.884;4.768;2024-01-07T06:33:21;101510.0;;;0.7
58307;BMP280;44116;50.884;4.768;2024-01-07T06:35:21;101520.0;;;0.8
58307;BMP280;44116;50.884;4.768;2024-01-07T06:37:20;101520.0;;;1.0
58307;BMP280;44116;50.884;4.768;2024-01-07T06:39:20;101520.0;;;0.8
58307;BMP280;44116;50.884;4.768;2024-01-07T06:41:20;101530.0;;;1.1
58307;BMP280;44116;50.884;4.768;2024-01-07T06:43:19;101520.0;;;1.0
58307;BMP280;44116;50.884;4.768;2024-01-07T06:45:19;101520.0;;;0.9
58307;BMP280;44116;50.884;4.768;2024-01-07T06:47:18;101530.0;;;0.9
58307;BMP280;44116;50.884;4.768;2024-01-07T06:49:18;101540.0;;;0.9
58307;BMP280;44116;50.884;4.768;2024-01-07T06:51:17;101540.0;;;1.1
58307;BMP280;44116;50.884;4.768;2024-01-07T06:53:17;101540.0;;;0.9
58307;BMP280;44116;50.884;4.768;2024-01-07T06:55:16;101550.0;;;1.1
58307;BMP280;44116;50.884;4.768;2024-01-07T06:57:16;101540.0;;;1.0
58307;BMP280;44116;50.884;4.768;2024-01-07T06:59:15;101550.0;;;0.9
58307;BMP280;44116;50.884;4.768;2024-01-07T07:01:17;101550.0;;;0.9
58307;BMP280;44116;50.884;4.768;2024-01-07T07:03:14;101550.0;;;0.9
58307;BMP280;44116;50.884;4.768;2024-01-07T07:05:14;101560.0;;;0.9
58307;BMP280;44116;50.884;4.768;2024-01-07T07:07:13;101560.0;;;0.8
58307;BMP280;44116;50.884;4.768;2024-01-07T07:09:13;101570.0;;;0.9
58307;BMP280;44116;50.884;4.768;2024-01-07T07:11:13;101570.0;;;0.9
58307;BMP280;44116;50.884;4.768;2024-01-07T07:13:12;101570.0;;;0.9
58307;BMP280;44116;50.884;4.768;2024-01-07T07:15:12;101560.0;;;1.0
58307;BMP280;44116;50.884;4.768;2024-01-07T07:17:11;101570.0;;;0.9
58307;BMP280;44116;50.884;4.768;2024-01-07T07:19:11;101580.0;;;1.0
58307;BMP280;44116;50.884;4.768;2024-01-07T07:21:10;101580.0;;;1.0
58307;BMP280;44116;50.884;4.768;2024-01-07T07:23:10;101580.0;;;1.0
58307;BMP280;44116;50.884;4.768;2024-01-07T07:25:09;101600.0;;;1.0
58307;BMP280;44116;50.884;4.768;2024-01-07T07:27:09;101590.0;;;1.0
58307;BMP280;44116;50.884;4.768;2024-01-07T07:29:08;101590.0;;;0.9
58307;BMP280;44116;50.884;4.768;2024-01-07T07:31:08;101600.0;;;0.9
58307;BMP280;44116;50.884;4.768;2024-01-07T07:33:07;101620.0;;;1.1
58307;BMP280;44116;50.884;4.768;2024-01-07T07:35:07;101600.0;;;0.9
58307;BMP280;44116;50.884;4.768;2024-01-07T07:37:06;101610.0;;;1.0
58307;BMP280;44116;50.884;4.768;2024-01-07T07:39:06;101610.0;;;0.9
58307;BMP280;44116;50.884;4.768;2024-01-07T07:41:06;101600.0;;;0.9
58307;BMP280;44116;50.884;4.768;2024-01-07T07:43:05;101610.0;;;1.0
58307;BMP280;44116;50.884;4.768;2024-01-07T07:45:05;101620.0;;;1.1
58307;BMP280;44116;50.884;4.768;2024-01-07T07:47:04;101620.0;;;1.2
58307;BMP280;44116;50.884;4.768;2024-01-07T07:49:04;101600.0;;;1.0
58307;BMP280;44116;50.884;4.768;2024-01-07T07:51:03;101620.0;;;1.1
58307;BMP280;44116;50.884;4.768;2024-01-07T07:53:03;101590.0;;;0.8
58307;BMP280;44116;50.884;4.768;2024-01-07T07:55:02;101620.0;;;1.0
58307;BMP280;44116;50.884;4.768;2024-01-07T07:57:02;101630.0;;;1.2
58307;BMP280;44116;50.884;4.768;2024-01-07T07:59:01;101590.0;;;0.8
58307;BMP280;44116;50.884;4.768;2024-01-07T08:01:01;101630.0;;;0.9
58307;BMP280;44116;50.884;4.768;2024-01-07T08:03:00;101650.0;;;1.1
58307;BMP280;44116;50.884;4.768;2024-01-07T08:05:00;101640.0;;;1.0
58307;BMP280;44116;50.884;4.768;2024-01-07T08:08:59;101650.0;;;1.0
58307;BMP280;44116;50.884;4.768;2024-01-07T08:10:58;101640.0;;;1.0
58307;BMP280;44116;50.884;4.768;2024-01-07T08:12:58;101640.0;;;1.0
58307;BMP280;44116;50.884;4.768;2024-01-07T08:14:58;101650.0;;;1.0
58307;BMP280;44116;50.884;4.768;2024-01-07T08:16:57;101630.0;;;1.0
58307;BMP280;44116;50.884;4.768;2024-01-07T08:18:57;101640.0;;;1.1
58307;BMP280;44116;50.884;4.768;2024-01-07T08:20:56;101610.0;;;0.9
58307;BMP280;44116;50.884;4.768;2024-01-07T08:22:56;101630.0;;;0.9
58307;BMP280;44116;50.884;4.768;2024-01-07T08:24:55;101620.0;;;0.9
58307;BMP280;44116;50.884;4.768;2024-01-07T08:26:55;101620.0;;;0.9
58307;BMP280;44116;50.884;4.768;2024-01-07T08:28:54;101620.0;;;0.9
58307;BMP280;44116;50.884;4.768;2024-01-07T08:30:54;101620.0;;;0.9
58307;BMP280;44116;50.884;4.768;2024-01-07T08:34:53;101640.0;;;1.1
58307;BMP280;44116;50.884;4.768;2024-01-07T08:36:52;101610.0;;;0.9
58307;BMP280;44116;50.884;4.768;2024-01-07T08:38:52;101640.0;;;1.0
58307;BMP280;44116;50.884;4.768;2024-01-07T08:40:51;101640.0;;;1.0
58307;BMP280;44116;50.884;4.768;2024-01-07T08:42:51;101660.0;;;1.1
58307;BMP280;44116;50.884;4.768;2024-01-07T08:44:50;101630.0;;;1.0
58307;BMP280;44116;50.884;4.768;2024-01-07T08:46:50;101620.0;;;0.9
58307;BMP280;44116;50.884;4.768;2024-01-07T08:48:50;101630.0;;;0.9
58307;BMP280;44116;50.884;4.768;2024-01-07T08:50:49;101640.0;;;0.9
58307;BMP280;44116;50.884;4.768;2024-01-07T08:52:49;101650.0;;;1.0
58307;BMP280;44116;50.884;4.768;2024-01-07T08:54:48;101610.0;;;0.6
58307;BMP280;44116;50.884;4.768;2024-01-07T08:56:48;101630.0;;;0.7
58307;BMP280;44116;50.884;4.768;2024-01-07T08:58:47;101640.0;;;0.7
58307;BMP280;44116;50.884;4.768;2024-01-07T09:00:47;101660.0;;;0.8
58307;BMP280;44116;50.884;4.768;2024-01-07T09:02:46;101670.0;;;0.9
58307;BMP280;44116;50.884;4.768;2024-01-07T09:04:46;101630.0;;;0.6
58307;BMP280;44116;50.884;4.768;2024-01-07T09:06:45;101660.0;;;0.8
58307;BMP280;44116;50.884;4.768;2024-01-07T09:08:45;101650.0;;;0.7
58307;BMP280;44116;50.884;4.768;2024-01-07T09:10:44;101670.0;;;0.8
58307;BMP280;44116;50.884;4.768;2024-01-07T09:12:44;101660.0;;;0.8
58307;BMP280;44116;50.884;4.768;2024-01-07T09:14:43;101670.0;;;0.8
58307;BMP280;44116;50.884;4.768;2024-01-07T09:16:43;101680.0;;;0.7
58307;BMP280;44116;50.884;4.768;2024-01-07T09:18:42;101670.0;;;0.7
58307;BMP280;44116;50.884;4.768;2024-01-07T09:20:42;101680.0;;;0.7
58307;BMP280;44116;50.884;4.768;2024-01-07T09:22:42;101690.0;;;0.7
58307;BMP280;44116;50.884;4.768;2024-01-07T09:24:41;101700.0;;;0.6
58307;BMP280;44116;50.884;4.768;2024-01-07T09:26:41;101680.0;;;0.4
58307;BMP280;44116;50.884;4.768;2024-01-07T09:28:40;101710.0;;;0.4
58307;BMP280;44116;50.884;4.768;2024-01-07T09:30:40;101740.0;;;0.4
58307;BMP280;44116;50.884;4.768;2024-01-07T09:32:39;101710.0;;;0.1
58307;BMP280;44116;50.884;4.768;2024-01-07T09:34:39;101760.0;;;0.3
58307;BMP280;44116;50.884;4.768;2024-01-07T09:36:38;101760.0;;;0.2
58307;BMP280;44116;50.884;4.768;2024-01-07T09:38:38;101770.0;;;0.1
58307;BMP280;44116;50.884;4.768;2024-01-07T09:40:37;101780.0;;;0.1
58307;BMP280;44116;50.884;4.768;2024-01-07T09:42:37;101810.0;;;0.4
58307;BMP280;44116;50.884;4.768;2024-01-07T09:44:36;101810.0;;;0.2
58307;BMP280;44116;50.884;4.768;2024-01-07T09:46:36;101820.0;;;0.2
58307;BMP280;44116;50.884;4.768;2024-01-07T09:48:35;101800.0;;;0.1
58307;BMP280;44116;50.884;4.768;2024-01-07T09:50:36;101800.0;;;0.3
58307;BMP280;44116;50.884;4.768;2024-01-07T09:52:34;101810.0;;;0.2
58307;BMP280;44116;50.884;4.768;2024-01-07T09:54:34;101820.0;;;0.1
58307;BMP280;44116;50.884;4.768;2024-01-07T09:56:35;101820.0;;;0.0
58307;BMP280;44116;50.884;4.768;2024-01-07T09:58:33;101820.0;;;-0.0
58307;BMP280;44116;50.884;4.768;2024-01-07T10:00:32;101830.0;;;0.2
58307;BMP280;44116;50.884;4.768;2024-01-07T10:02:32;101830.0;;;0.2
58307;BMP280;44116;50.884;4.768;2024-01-07T10:04:31;101840.0;;;0.1
58307;BMP280;44116;50.884;4.768;2024-01-07T10:06:31;101820.0;;;0.1
58307;BMP280;44116;50.884;4.768;2024-01-07T10:08:31;101820.0;;;0.1
58307;BMP280;44116;50.884;4.768;2024-01-07T10:10:30;101840.0;;;0.3
58307;BMP280;44116;50.884;4.768;2024-01-07T10:12:29;101840.0;;;0.2
58307;BMP280;44116;50.884;4.768;2024-01-07T10:14:29;101840.0;;;0.2
58307;BMP280;44116;50.884;4.768;2024-01-07T10:16:28;101850.0;;;0.4
58307;BMP280;44116;50.884;4.768;2024-01-07T10:18:28;101850.0;;;0.4
58307;BMP280;44116;50.884;4.768;2024-01-07T10:20:28;101830.0;;;0.3
58307;BMP280;44116;50.884;4.768;2024-01-07T10:22:27;101850.0;;;0.2
58307;BMP280;44116;50.884;4.768;2024-01-07T10:24:29;101850.0;;;0.3
58307;BMP280;44116;50.884;4.768;2024-01-07T10:26:26;101870.0;;;0.4
58307;BMP280;44116;50.884;4.768;2024-01-07T10:28:25;101840.0;;;0.2
58307;BMP280;44116;50.884;4.768;2024-01-07T10:30:25;101860.0;;;0.3
58307;BMP280;44116;50.884;4.768;2024-01-07T10:32:25;101860.0;;;0.3
58307;BMP280;44116;50.884;4.768;2024-01-07T10:34:25;101860.0;;;0.5
58307;BMP280;44116;50.884;4.768;2024-01-07T10:36:24;101860.0;;;0.4
58307;BMP280;44116;50.884;4.768;2024-01-07T10:38:23;101840.0;;;0.2
58307;BMP280;44116;50.884;4.768;2024-01-07T10:40:23;101830.0;;;0.1
58307;BMP280;44116;50.884;4.768;2024-01-07T10:42:22;101850.0;;;0.1
58307;BMP280;44116;50.884;4.768;2024-01-07T10:44:22;101860.0;;;0.2
58307;BMP280;44116;50.884;4.768;2024-01-07T10:46:21;101850.0;;;0.2
58307;BMP280;44116;50.884;4.768;2024-01-07T10:48:21;101860.0;;;0.2
58307;BMP280;44116;50.884;4.768;2024-01-07T10:52:20;101860.0;;;0.2
58307;BMP280;44116;50.884;4.768;2024-01-07T10:54:19;101850.0;;;0.2
58307;BMP280;44116;50.884;4.768;2024-01-07T10:56:19;101870.0;;;0.3
58307;BMP280;44116;50.884;4.768;2024-01-07T10:58:18;101840.0;;;0.2
58307;BMP280;44116;50.884;4.768;2024-01-07T11:00:18;101850.0;;;0.3
58307;BMP280;44116;50.884;4.768;2024-01-07T11:02:17;101840.0;;;0.2
58307;BMP280;44116;50.884;4.768;2024-01-07T11:04:17;101860.0;;;0.2
58307;BMP280;44116;50.884;4.768;2024-01-07T11:06:18;101860.0;;;0.3
58307;BMP280;44116;50.884;4.768;2024-01-07T11:08:18;101840.0;;;0.1
58307;BMP280;44116;50.884;4.768;2024-01-07T11:12:15;101860.0;;;0.1
58307;BMP280;44116;50.884;4.768;2024-01-07T11:16:14;101860.0;;;0.1
58307;BMP280;44116;50.884;4.768;2024-01-07T11:18:16;101860.0;;;0.1
58307;BMP280;44116;50.884;4.768;2024-01-07T11:20:16;101880.0;;;0.2
58307;BMP280;44116;50.884;4.768;2024-01-07T11:26:11;101870.0;;;0.2
58307;BMP280;44116;50.884;4.768;2024-01-07T11:28:11;101900.0;;;0.3
58307;BMP280;44116;50.884;4.768;2024-01-07T11:30:18;101890.0;;;0.2
58307;BMP280;44116;50.884;4.768;2024-01-07T11:32:12;101890.0;;;0.2
58307;BMP280;44116;50.884;4.768;2024-01-07T11:34:09;101870.0;;;0.1
58307;BMP280;44116;50.884;4.768;2024-01-07T11:36:10;101870.0;;;0.2
58307;BMP280;44116;50.884;4.768;2024-01-07T11:38:08;101860.0;;;0.1
58307;BMP280;44116;50.884;4.768;2024-01-07T11:40:08;101870.0;;;0.2
58307;BMP280;44116;50.884;4.768;2024-01-07T11:42:07;101870.0;;;0.2
58307;BMP280;44116;50.884;4.768;2024-01-07T11:44:07;101870.0;;;0.2
58307;BMP280;44116;50.884;4.768;2024-01-07T11:46:06;101850.0;;;0.2
58307;BMP280;44116;50.884;4.768;2024-01-07T11:48:06;101880.0;;;0.4
58307;BMP280;44116;50.884;4.768;2024-01-07T11:50:05;101850.0;;;0.2
58307;BMP280;44116;50.884;4.768;2024-01-07T11:52:05;101870.0;;;0.3
58307;BMP280;44116;50.884;4.768;2024-01-07T11:54:04;101870.0;;;0.3
58307;BMP280;44116;50.884;4.768;2024-01-07T11:56:04;101850.0;;;0.2
58307;BMP280;44116;50.884;4.768;2024-01-07T11:58:03;101860.0;;;0.2
58307;BMP280;44116;50.884;4.768;2024-01-07T12:00:03;101830.0;;;0.1
58307;BMP280;44116;50.884;4.768;2024-01-07T12:02:03;101830.0;;;0.1
58307;BMP280;44116;50.884;4.768;2024-01-07T12:04:02;101850.0;;;0.1
58307;BMP280;44116;50.884;4.768;2024-01-07T12:06:01;101870.0;;;0.2
58307;BMP280;44116;50.884;4.768;2024-01-07T12:08:01;101830.0;;;0.1
58307;BMP280;44116;50.884;4.768;2024-01-07T12:10:00;101860.0;;;0.2
58307;BMP280;44116;50.884;4.768;2024-01-07T12:12:00;101870.0;;;0.2
58307;BMP280;44116;50.884;4.768;2024-01-07T12:13:59;101870.0;;;0.3
58307;BMP280;44116;50.884;4.768;2024-01-07T12:15:59;101870.0;;;0.3
58307;BMP280;44116;50.884;4.768;2024-01-07T12:17:58;101850.0;;;0.3